Time;durP1;ratioP1;P1;durP2;ratioP2;P2;SDS_P1;SDS_P2;PMS_P1;PMS_P2;Temp;Humidity;BMP_temperature;BMP_pressure;BME280_temperature;BME280_humidity;BME280_pressure;Samples;Min_cycle;Max_cycle;Signal;HPM_P1;HPM_P2
2022/09/01 00:02:14;;;;;;;1999.90;999.90;;;19.70;99.90;;;;;;5035074;28;20424;-71
2022/09/01 00:04:43;;;;;;;1999.90;999.90;;;19.60;99.90;;;;;;5035137;28;20417;-71
2022/09/01 00:07:09;;;;;;;1999.90;999.90;;;19.60;99.90;;;;;;5035052;28;20510;-71
2022/09/01 00:09:35;;;;;;;1999.90;999.90;;;19.50;99.90;;;;;;5034919;28;20461;-71
2022/09/01 00:12:03;;;;;;;1999.90;999.90;;;19.50;99.90;;;;;;5034873;28;20887;-71
2022/09/01 00:14:33;;;;;;;1999.90;999.90;;;19.40;99.90;;;;;;5034890;28;20417;-71
2022/09/01 00:17:04;;;;;;;1999.90;999.90;;;19.40;99.90;;;;;;5034476;28;20820;-71
2022/09/01 00:19:32;;;;;;;1999.90;999.90;;;19.40;99.90;;;;;;5034775;28;20869;-71
2022/09/01 00:21:59;;;;;;;1999.90;999.90;;;19.40;99.90;;;;;;5034909;28;20836;-71
2022/09/01 00:24:25;;;;;;;1999.90;999.90;;;19.40;99.90;;;;;;5034576;28;20420;-71
2022/09/01 00:26:51;;;;;;;1999.90;999.90;;;19.30;99.90;;;;;;5034285;28;20895;-71
2022/09/01 00:29:18;;;;;;;1999.90;999.90;;;19.30;99.90;;;;;;5034588;28;20458;-71
2022/09/01 00:31:44;;;;;;;1999.90;999.90;;;19.30;99.90;;;;;;5034590;28;20401;-71
2022/09/01 00:34:09;;;;;;;1999.90;999.90;;;19.30;99.90;;;;;;5034508;28;20408;-71
2022/09/01 00:36:35;;;;;;;1999.90;999.90;;;19.30;99.90;;;;;;5034390;28;20213;-71
2022/09/01 00:39:01;;;;;;;1999.90;999.90;;;19.20;99.90;;;;;;5034302;28;20221;-71
2022/09/01 00:41:29;;;;;;;1999.90;999.90;;;19.20;99.90;;;;;;5034360;28;20547;-71
2022/09/01 00:44:04;;;;;;;1999.90;999.90;;;19.10;99.90;;;;;;5034597;28;20186;-71
2022/09/01 00:46:35;;;;;;;1999.90;999.90;;;19.10;99.90;;;;;;5015601;28;20985;-71
2022/09/01 00:49:06;;;;;;;1999.90;999.90;;;19.10;99.90;;;;;;5033959;28;20879;-71
2022/09/01 00:51:35;;;;;;;1999.90;999.90;;;19.00;99.90;;;;;;5034105;28;20401;-71
2022/09/01 00:54:04;;;;;;;1999.90;999.90;;;18.90;99.90;;;;;;5034356;28;20472;-71
2022/09/01 00:56:32;;;;;;;1999.90;999.90;;;18.90;99.90;;;;;;5033980;28;20401;-71
2022/09/01 00:58:59;;;;;;;1999.90;999.90;;;18.80;99.90;;;;;;5033987;28;20985;-71
2022/09/01 01:01:24;;;;;;;1999.90;999.90;;;18.80;99.90;;;;;;5033958;28;20413;-71
2022/09/01 01:03:50;;;;;;;1999.90;999.90;;;18.80;99.90;;;;;;5033916;28;20430;-71
2022/09/01 01:06:18;;;;;;;1999.90;999.90;;;18.80;99.90;;;;;;5034064;28;20764;-71
2022/09/01 01:08:56;;;;;;;1999.90;999.90;;;18.80;99.90;;;;;;5033928;28;20594;-71
2022/09/01 01:11:24;;;;;;;1999.90;999.90;;;18.80;99.90;;;;;;5033870;28;20491;-71
2022/09/01 01:14:04;;;;;;;1999.90;999.90;;;18.80;99.90;;;;;;5033788;28;20434;-71
2022/09/01 01:16:30;;;;;;;1999.90;999.90;;;18.80;99.90;;;;;;5033515;28;20399;-71
2022/09/01 01:18:56;;;;;;;1999.90;999.90;;;18.90;99.90;;;;;;5033618;28;20423;-71
2022/09/01 01:24:23;;;;;;;1999.90;999.90;;;18.90;99.90;;;;;;5033862;28;20216;-71
2022/09/01 01:26:50;;;;;;;1999.90;999.90;;;18.90;99.90;;;;;;5033572;28;20407;-71
2022/09/01 01:29:16;;;;;;;1999.90;999.90;;;18.90;99.90;;;;;;5033416;28;20514;-71
2022/09/01 01:31:42;;;;;;;1999.90;999.90;;;18.80;99.90;;;;;;5033717;28;20446;-71
2022/09/01 01:34:08;;;;;;;1999.90;999.90;;;18.90;99.90;;;;;;5033364;28;20441;-71
2022/09/01 01:36:36;;;;;;;1999.90;999.90;;;18.80;99.90;;;;;;5033216;28;20163;-71
2022/09/01 01:39:09;;;;;;;1999.90;999.90;;;18.80;99.90;;;;;;5033193;28;20499;-71
2022/09/01 01:41:39;;;;;;;1999.90;999.90;;;18.80;99.90;;;;;;5033255;28;20415;-71
2022/09/01 01:44:05;;;;;;;1999.90;999.90;;;18.70;99.90;;;;;;5033368;28;20432;-71
2022/09/01 01:46:33;;;;;;;1999.90;999.90;;;18.70;99.90;;;;;;5033039;28;20847;-71
2022/09/01 01:49:01;;;;;;;1999.90;999.90;;;18.60;99.90;;;;;;5032939;28;20279;-71
2022/09/01 01:51:29;;;;;;;1999.90;999.90;;;18.60;99.90;;;;;;5033289;28;20433;-71
2022/09/01 01:53:55;;;;;;;1999.90;999.90;;;18.60;99.90;;;;;;5032982;28;20407;-71
2022/09/01 01:56:25;;;;;;;1999.90;999.90;;;18.60;99.90;;;;;;5033108;28;20418;-71
2022/09/01 01:58:54;;;;;;;1999.90;999.90;;;18.50;99.90;;;;;;5032424;28;20446;-71
2022/09/01 02:01:23;;;;;;;1999.90;999.90;;;18.50;99.90;;;;;;5032927;28;20406;-71
2022/09/01 02:03:51;;;;;;;1999.90;999.90;;;18.40;99.90;;;;;;5032814;28;20474;-71
2022/09/01 02:06:23;;;;;;;1999.90;999.90;;;18.40;99.90;;;;;;5032589;28;20451;-71
2022/09/01 02:08:57;;;;;;;1999.90;999.90;;;18.40;99.90;;;;;;5032564;28;20897;-71
2022/09/01 02:11:24;;;;;;;1999.90;999.90;;;18.40;99.90;;;;;;5032762;28;20815;-71
2022/09/01 02:13:55;;;;;;;1999.90;999.90;;;18.30;99.90;;;;;;5032556;28;20413;-71
2022/09/01 02:16:21;;;;;;;1999.90;999.90;;;18.20;99.90;;;;;;5032628;28;20404;-71
2022/09/01 02:18:48;;;;;;;1999.90;999.90;;;18.20;99.90;;;;;;5032547;28;20460;-71
2022/09/01 02:21:18;;;;;;;1999.90;999.90;;;18.10;99.90;;;;;;5032417;28;20494;-71
2022/09/01 02:23:49;;;;;;;1999.90;999.90;;;18.10;99.90;;;;;;5032787;28;20923;-71
2022/09/01 02:26:17;;;;;;;1999.90;999.90;;;18.10;99.90;;;;;;5032345;28;20457;-71
2022/09/01 02:28:48;;;;;;;1999.90;999.90;;;18.10;99.90;;;;;;5032164;28;20465;-71
2022/09/01 02:31:13;;;;;;;1999.90;999.90;;;18.00;99.90;;;;;;5032390;28;20969;-71
2022/09/01 02:33:44;;;;;;;1999.90;999.90;;;18.00;99.90;;;;;;5032302;28;20504;-71
2022/09/01 02:36:14;;;;;;;1999.90;999.90;;;18.00;99.90;;;;;;5032059;28;20190;-71
2022/09/01 02:38:43;;;;;;;1999.90;999.90;;;17.90;99.90;;;;;;5032213;28;20443;-71
2022/09/01 02:41:08;;;;;;;1999.90;999.90;;;17.90;99.90;;;;;;5032274;28;20835;-71
2022/09/01 02:43:34;;;;;;;1999.90;999.90;;;17.90;99.90;;;;;;5032170;28;20550;-71
2022/09/01 02:46:01;;;;;;;1999.90;999.90;;;17.80;99.90;;;;;;5031966;28;20414;-71
2022/09/01 02:48:35;;;;;;;1999.90;999.90;;;17.80;99.90;;;;;;5032134;28;20229;-71
2022/09/01 02:51:05;;;;;;;1999.90;999.90;;;17.80;99.90;;;;;;5032177;28;20399;-71
2022/09/01 02:53:33;;;;;;;1999.90;999.90;;;17.80;99.90;;;;;;5032302;28;20899;-71
2022/09/01 02:56:01;;;;;;;1999.90;999.90;;;17.80;99.90;;;;;;5031913;28;20430;-71
2022/09/01 02:58:28;;;;;;;1999.90;999.90;;;17.70;99.90;;;;;;5032192;28;20440;-71
2022/09/01 03:00:56;;;;;;;1999.90;999.90;;;17.70;99.90;;;;;;5031959;28;20932;-71
2022/09/01 03:03:22;;;;;;;1999.90;999.90;;;17.70;99.90;;;;;;5031990;28;20769;-71
2022/09/01 03:05:55;;;;;;;1999.90;999.90;;;17.60;99.90;;;;;;5031871;28;20466;-71
2022/09/01 03:08:23;;;;;;;1999.90;999.90;;;17.60;99.90;;;;;;5031730;28;20510;-71
2022/09/01 03:10:50;;;;;;;1999.90;999.90;;;17.60;99.90;;;;;;5033605;28;20497;-71
2022/09/01 03:13:20;;;;;;;1999.90;999.90;;;17.60;99.90;;;;;;5035918;28;20409;-71
2022/09/01 03:15:46;;;;;;;1999.90;999.90;;;17.60;99.90;;;;;;5036503;28;20433;-71
2022/09/01 03:18:13;;;;;;;1999.90;999.90;;;17.50;99.90;;;;;;5035769;28;20880;-71
2022/09/01 03:20:43;;;;;;;1999.90;999.90;;;17.40;99.90;;;;;;5035865;28;20217;-71
2022/09/01 03:23:13;;;;;;;1999.90;999.90;;;17.40;99.90;;;;;;5035801;28;20486;-71
2022/09/01 03:25:40;;;;;;;1999.90;999.90;;;17.30;99.90;;;;;;5035756;28;20412;-71
2022/09/01 03:28:05;;;;;;;1999.90;999.90;;;17.40;99.90;;;;;;5035866;28;20442;-71
2022/09/01 03:30:33;;;;;;;1999.90;999.90;;;17.30;99.90;;;;;;5035702;28;20850;-71
2022/09/01 03:33:01;;;;;;;1999.90;999.90;;;17.30;99.90;;;;;;5035678;28;20169;-71
2022/09/01 03:35:28;;;;;;;1999.90;999.90;;;17.30;99.90;;;;;;5035517;28;20394;-71
2022/09/01 03:37:57;;;;;;;1999.90;999.90;;;17.30;99.90;;;;;;5035445;28;20451;-70
2022/09/01 03:40:26;;;;;;;1999.90;999.90;;;17.30;99.90;;;;;;5035548;28;20415;-71
2022/09/01 03:42:52;;;;;;;1999.90;999.90;;;17.30;99.90;;;;;;5035474;28;20414;-71
2022/09/01 03:45:19;;;;;;;1999.90;999.90;;;17.30;99.90;;;;;;5035673;28;20405;-71
2022/09/01 03:47:45;;;;;;;1999.90;999.90;;;17.30;99.90;;;;;;5017454;28;20438;-71
2022/09/01 03:50:19;;;;;;;1999.90;999.90;;;17.30;99.90;;;;;;5035165;28;20529;-71
2022/09/01 03:52:52;;;;;;;1999.90;999.90;;;17.20;99.90;;;;;;5035240;28;20483;-71
2022/09/01 03:55:25;;;;;;;1999.90;999.90;;;17.20;99.90;;;;;;5035226;28;20403;-71
2022/09/01 03:57:59;;;;;;;1999.90;999.90;;;17.20;99.90;;;;;;5035035;28;20424;-71
2022/09/01 04:00:28;;;;;;;1999.90;999.90;;;17.20;99.90;;;;;;5035293;28;20450;-71
2022/09/01 04:02:57;;;;;;;1999.90;999.90;;;17.20;99.90;;;;;;5035067;28;20417;-71
2022/09/01 04:05:27;;;;;;;1999.90;999.90;;;17.20;99.90;;;;;;5034905;28;20407;-71
2022/09/01 04:07:55;;;;;;;1999.90;999.90;;;17.10;99.90;;;;;;5034954;28;20510;-71
2022/09/01 04:10:21;;;;;;;1999.90;999.90;;;17.10;99.90;;;;;;5034939;28;20407;-71
2022/09/01 04:12:48;;;;;;;1999.90;999.90;;;17.00;99.90;;;;;;5034947;28;20393;-71
2022/09/01 04:15:16;;;;;;;1999.90;999.90;;;17.00;99.90;;;;;;5034814;28;20399;-71
2022/09/01 04:20:52;;;;;;;1999.90;999.90;;;17.00;99.90;;;;;;4992788;28;20404;-71
2022/09/01 04:23:32;;;;;;;1999.90;999.90;;;16.90;99.90;;;;;;4993090;28;20831;-71
2022/09/01 04:26:08;;;;;;;1999.90;999.90;;;16.90;99.90;;;;;;5016867;28;20433;-71
2022/09/01 04:28:40;;;;;;;1999.90;999.90;;;16.90;99.90;;;;;;5034466;28;20495;-71
2022/09/01 04:31:09;;;;;;;1999.90;999.90;;;16.90;99.90;;;;;;5034624;28;20398;-71
2022/09/01 04:33:38;;;;;;;1999.90;999.90;;;16.80;99.90;;;;;;5034538;28;20431;-71
2022/09/01 04:36:22;;;;;;;1999.90;999.90;;;16.80;99.90;;;;;;5034366;28;20406;-71
2022/09/01 04:38:53;;;;;;;1999.90;999.90;;;16.80;99.90;;;;;;5034410;28;20951;-71
2022/09/01 04:41:24;;;;;;;1999.90;999.90;;;16.70;99.90;;;;;;5016708;28;20517;-71
2022/09/01 04:43:51;;;;;;;1999.90;999.90;;;16.70;99.90;;;;;;5034387;28;20428;-71
2022/09/01 04:46:20;;;;;;;1999.90;999.90;;;16.60;99.90;;;;;;5034224;28;21031;-71
2022/09/01 04:48:46;;;;;;;1999.90;999.90;;;16.60;99.90;;;;;;5034296;28;20469;-71
2022/09/01 04:51:14;;;;;;;1999.90;999.90;;;16.60;99.90;;;;;;5034136;28;20400;-71
2022/09/01 04:53:47;;;;;;;1999.90;999.90;;;16.50;99.90;;;;;;5034296;28;20414;-71
2022/09/01 04:56:18;;;;;;;1999.90;999.90;;;16.60;99.90;;;;;;5034307;28;20792;-71
2022/09/01 04:58:45;;;;;;;1999.90;999.90;;;16.50;99.90;;;;;;5034054;28;20483;-71
2022/09/01 05:01:23;;;;;;;1999.90;999.90;;;16.50;99.90;;;;;;5033968;28;20414;-71
2022/09/01 05:04:00;;;;;;;1999.90;999.90;;;16.40;99.90;;;;;;5033863;28;20447;-71
2022/09/01 05:06:28;;;;;;;1999.90;999.90;;;16.40;99.90;;;;;;5016078;28;20999;-71
2022/09/01 05:08:58;;;;;;;1999.90;999.90;;;16.40;99.90;;;;;;5033775;28;20540;-71
2022/09/01 05:11:26;;;;;;;1999.90;999.90;;;16.40;99.90;;;;;;5033854;28;20426;-71
2022/09/01 05:13:56;;;;;;;1999.90;999.90;;;16.40;99.90;;;;;;5033807;28;20410;-71
2022/09/01 05:16:24;;;;;;;1999.90;999.90;;;16.40;99.90;;;;;;5034054;28;20422;-71
2022/09/01 05:18:54;;;;;;;1999.90;999.90;;;16.40;99.90;;;;;;5033696;28;20441;-71
2022/09/01 05:21:23;;;;;;;1999.90;999.90;;;16.40;99.90;;;;;;5033704;28;20402;-71
2022/09/01 05:23:50;;;;;;;1999.90;999.90;;;16.40;99.90;;;;;;5033561;28;20400;-71
2022/09/01 05:26:22;;;;;;;1999.90;999.90;;;16.40;99.90;;;;;;5033376;28;20407;-71
2022/09/01 05:28:54;;;;;;;1999.90;999.90;;;16.40;99.90;;;;;;5033254;28;20521;-71
2022/09/01 05:31:21;;;;;;;1999.90;999.90;;;16.40;99.90;;;;;;5033560;28;20488;-71
2022/09/01 05:33:48;;;;;;;1999.90;999.90;;;16.40;99.90;;;;;;5032627;28;20434;-71
2022/09/01 05:36:20;;;;;;;1999.90;999.90;;;16.40;99.90;;;;;;5033263;28;20862;-71
2022/09/01 05:38:46;;;;;;;1999.90;999.90;;;16.50;99.90;;;;;;5033295;28;20508;-71
2022/09/01 05:41:14;;;;;;;1999.90;999.90;;;16.50;99.90;;;;;;5033498;28;20410;-71
2022/09/01 05:43:46;;;;;;;1999.90;999.90;;;16.50;99.90;;;;;;5033163;28;20440;-71
2022/09/01 05:46:15;;;;;;;1999.90;999.90;;;16.50;99.90;;;;;;5033043;28;20388;-71
2022/09/01 05:48:42;;;;;;;1999.90;999.90;;;16.60;99.90;;;;;;5032995;28;20461;-71
2022/09/01 05:51:10;;;;;;;1999.90;999.90;;;16.70;99.90;;;;;;5033076;28;20412;-71
2022/09/01 05:53:36;;;;;;;1999.90;999.90;;;16.70;99.90;;;;;;5033004;28;20463;-71
2022/09/01 05:56:08;;;;;;;1999.90;999.90;;;16.80;99.90;;;;;;5032827;28;20446;-71
2022/09/01 05:58:35;;;;;;;1999.90;999.90;;;16.80;99.90;;;;;;5033178;28;20456;-71
2022/09/01 06:01:01;;;;;;;1999.90;999.90;;;16.80;99.90;;;;;;5032957;28;20407;-71
2022/09/01 06:03:27;;;;;;;1999.90;999.90;;;17.00;99.90;;;;;;5032823;28;20408;-71
2022/09/01 06:05:54;;;;;;;1999.90;999.90;;;17.00;99.90;;;;;;5033065;28;20176;-71
2022/09/01 06:08:23;;;;;;;1999.90;999.90;;;17.10;99.90;;;;;;5032309;28;20928;-71
2022/09/01 06:10:50;;;;;;;1999.90;999.90;;;17.20;99.90;;;;;;5014995;28;20418;-71
2022/09/01 06:13:20;;;;;;;1999.90;999.90;;;17.20;99.90;;;;;;5032581;28;20399;-71
2022/09/01 06:15:48;;;;;;;1999.90;999.90;;;17.30;99.90;;;;;;5032526;28;20414;-71
2022/09/01 06:18:16;;;;;;;1999.90;999.90;;;17.40;99.90;;;;;;5032411;28;20422;-71
2022/09/01 06:20:43;;;;;;;1999.90;999.90;;;17.40;99.90;;;;;;5032492;28;20404;-71
2022/09/01 06:23:14;;;;;;;1999.90;999.90;;;17.40;99.90;;;;;;5032448;28;20439;-71
2022/09/01 06:25:44;;;;;;;1999.90;999.90;;;17.40;99.90;;;;;;5032533;28;20483;-71
2022/09/01 06:28:22;;;;;;;1999.90;999.90;;;17.60;99.90;;;;;;5032087;28;20492;-71
2022/09/01 06:30:49;;;;;;;1999.90;999.90;;;17.60;99.90;;;;;;5032653;28;20389;-71
2022/09/01 06:33:15;;;;;;;1999.90;999.90;;;17.70;99.90;;;;;;5032323;28;20406;-71
2022/09/01 06:35:45;;;;;;;1999.90;999.90;;;17.80;99.90;;;;;;5032277;28;20488;-71
2022/09/01 06:38:12;;;;;;;1999.90;999.90;;;17.90;99.90;;;;;;5032459;28;20419;-71
2022/09/01 06:40:40;;;;;;;1999.90;999.90;;;18.00;99.90;;;;;;5032239;28;20409;-71
2022/09/01 06:43:07;;;;;;;1999.90;999.90;;;18.00;99.90;;;;;;5032107;28;20408;-71
2022/09/01 06:45:41;;;;;;;1999.90;999.90;;;18.10;99.90;;;;;;5032104;28;20450;-71
2022/09/01 06:48:08;;;;;;;1999.90;999.90;;;18.20;99.90;;;;;;5031933;28;20420;-71
2022/09/01 06:50:34;;;;;;;1999.90;999.90;;;18.30;99.90;;;;;;5032157;28;20831;-71
2022/09/01 06:53:07;;;;;;;1999.90;999.90;;;18.40;99.90;;;;;;5032190;28;20458;-71
2022/09/01 06:55:36;;;;;;;1999.90;999.90;;;18.60;99.90;;;;;;5032090;28;20448;-71
2022/09/01 06:58:06;;;;;;;1999.90;999.90;;;18.60;99.90;;;;;;5032031;28;20947;-71
2022/09/01 07:00:34;;;;;;;1999.90;999.90;;;18.70;99.90;;;;;;5031925;28;20437;-71
2022/09/01 07:03:01;;;;;;;1999.90;999.90;;;18.70;99.90;;;;;;5031960;28;20546;-71
2022/09/01 07:05:26;;;;;;;1999.90;999.90;;;18.80;99.90;;;;;;5031930;28;20404;-71
2022/09/01 07:07:54;;;;;;;1999.90;999.90;;;18.80;99.90;;;;;;5031657;28;20430;-71
2022/09/01 07:10:25;;;;;;;1999.90;999.90;;;19.00;99.90;;;;;;5031826;28;20573;-71
2022/09/01 07:12:57;;;;;;;1999.90;999.90;;;19.00;99.90;;;;;;5031827;28;20595;-71
2022/09/01 07:15:23;;;;;;;1999.90;999.90;;;19.10;99.90;;;;;;5031796;28;20411;-71
2022/09/01 07:17:55;;;;;;;1999.90;999.90;;;19.20;99.90;;;;;;5031659;28;20423;-71
2022/09/01 07:20:23;;;;;;;1999.90;999.90;;;19.20;99.90;;;;;;5031810;28;20183;-71
2022/09/01 07:22:50;;;;;;;1999.90;999.90;;;19.30;99.90;;;;;;5031841;28;20414;-71
2022/09/01 07:25:16;;;;;;;1999.90;999.90;;;19.40;99.90;;;;;;5031737;28;20427;-71
2022/09/01 07:27:49;;;;;;;1999.90;999.90;;;19.40;99.90;;;;;;5031402;28;20438;-71
2022/09/01 07:30:20;;;;;;;1999.90;999.90;;;19.60;99.90;;;;;;5031788;28;20446;-71
2022/09/01 07:32:47;;;;;;;1999.90;999.90;;;19.60;99.90;;;;;;5031748;28;20426;-71
2022/09/01 07:35:14;;;;;;;1999.90;999.90;;;19.70;99.90;;;;;;5031884;28;20413;-71
2022/09/01 07:37:40;;;;;;;1999.90;999.90;;;19.80;99.90;;;;;;5031294;28;20425;-71
2022/09/01 07:40:11;;;;;;;1999.90;999.90;;;20.00;99.90;;;;;;5031596;28;20465;-71
2022/09/01 07:42:38;;;;;;;1999.90;999.90;;;20.00;99.90;;;;;;5031573;28;20182;-71
2022/09/01 07:45:09;;;;;;;1999.90;999.90;;;20.10;99.90;;;;;;5031648;28;20411;-71
2022/09/01 07:47:35;;;;;;;1999.90;999.90;;;20.20;99.90;;;;;;5031359;28;20844;-71
2022/09/01 07:50:06;;;;;;;1999.90;999.90;;;20.30;99.90;;;;;;5031429;28;20560;-71
2022/09/01 07:52:41;;;;;;;1999.90;999.90;;;20.40;99.90;;;;;;5031842;28;20920;-71
2022/09/01 07:55:11;;;;;;;1999.90;999.90;;;20.50;99.90;;;;;;5031697;28;20805;-71
2022/09/01 07:57:37;;;;;;;1999.90;999.90;;;20.60;99.90;;;;;;5034044;28;20419;-71
2022/09/01 08:00:05;;;;;;;1999.90;999.90;;;20.70;99.90;;;;;;5035136;28;20744;-71
2022/09/01 08:02:31;;;;;;;1999.90;999.90;;;20.80;99.90;;;;;;5035137;28;20490;-71
2022/09/01 08:04:57;;;;;;;1999.90;999.90;;;20.90;99.90;;;;;;5034995;28;20415;-71
2022/09/01 08:07:23;;;;;;;1999.90;999.90;;;20.90;99.90;;;;;;5034595;28;21039;-71
2022/09/01 08:09:49;;;;;;;1999.90;999.90;;;21.00;99.90;;;;;;5034902;28;20545;-71
2022/09/01 08:12:15;;;;;;;1999.90;999.90;;;21.00;99.90;;;;;;5035004;28;20435;-71
2022/09/01 08:14:41;;;;;;;1999.90;999.90;;;21.20;99.90;;;;;;5034839;28;20175;-71
2022/09/01 08:17:06;;;;;;;1999.90;999.90;;;21.30;99.90;;;;;;5034595;28;20433;-71
2022/09/01 08:19:32;;;;;;;1999.90;999.90;;;21.30;99.90;;;;;;5034814;28;20544;-71
2022/09/01 08:21:57;;;;;;;1999.90;999.90;;;21.50;99.90;;;;;;5034784;28;20247;-71
2022/09/01 08:24:23;;;;;;;1999.90;999.90;;;21.50;99.90;;;;;;5034890;28;20173;-71
2022/09/01 08:26:48;;;;;;;1999.90;999.90;;;21.50;99.90;;;;;;5034231;28;20564;-71
2022/09/01 08:29:14;;;;;;;1999.90;999.90;;;21.50;99.90;;;;;;5034569;28;20181;-71
2022/09/01 08:31:40;;;;;;;1999.90;999.90;;;21.40;99.90;;;;;;5034591;28;20176;-71
2022/09/01 08:34:05;;;;;;;1999.90;999.90;;;21.40;99.90;;;;;;5034544;28;20596;-71
2022/09/01 08:36:31;;;;;;;1999.90;999.90;;;21.40;99.90;;;;;;5034332;28;20168;-71
2022/09/01 08:38:57;;;;;;;1999.90;999.90;;;21.40;99.90;;;;;;5034355;28;20194;-71
2022/09/01 08:41:31;;;;;;;1999.90;999.90;;;21.40;99.90;;;;;;5034350;28;20538;-71
2022/09/01 08:44:28;;;;;;;1999.90;999.90;;;21.50;99.90;;;;;;5034573;28;20173;-71
2022/09/01 08:46:58;;;;;;;1999.90;999.90;;;21.50;99.90;;;;;;5033848;28;20417;-71
2022/09/01 08:49:24;;;;;;;1999.90;999.90;;;21.60;99.90;;;;;;5034212;28;20495;-71
2022/09/01 08:52:09;;;;;;;1999.90;999.90;;;21.70;99.90;;;;;;5034317;28;20961;-71
2022/09/01 08:54:52;;;;;;;1999.90;999.90;;;21.90;99.90;;;;;;5034242;28;20539;-71
2022/09/01 08:57:22;;;;;;;1999.90;999.90;;;22.10;99.90;;;;;;5033773;28;20420;-71
2022/09/01 08:59:48;;;;;;;1999.90;999.90;;;22.20;99.90;;;;;;5034125;28;20409;-71
2022/09/01 09:02:19;;;;;;;1999.90;999.90;;;22.50;99.90;;;;;;5034030;28;20847;-71
2022/09/01 09:05:02;;;;;;;1999.90;999.90;;;22.60;99.90;;;;;;5033973;28;20409;-71
2022/09/01 09:07:48;;;;;;;1999.90;999.90;;;22.60;99.90;;;;;;5032912;28;20992;-71
2022/09/01 09:10:25;;;;;;;1999.90;999.90;;;22.80;99.90;;;;;;5033793;28;20456;-71
2022/09/01 09:12:56;;;;;;;1999.90;999.90;;;22.90;99.90;;;;;;5033807;28;20357;-71
2022/09/01 09:15:36;;;;;;;1999.90;999.90;;;23.00;99.90;;;;;;5033873;28;20396;-71
2022/09/01 09:18:23;;;;;;;1999.90;999.90;;;23.10;99.90;;;;;;5033723;28;20457;-71
2022/09/01 09:20:50;;;;;;;1999.90;999.90;;;23.20;99.90;;;;;;5033680;28;20469;-71
2022/09/01 09:23:27;;;;;;;1999.90;999.90;;;23.30;99.90;;;;;;5033722;28;20915;-71
2022/09/01 09:25:52;;;;;;;1999.90;999.90;;;23.30;99.90;;;;;;5033540;28;20453;-71
2022/09/01 09:28:18;;;;;;;1999.90;999.90;;;23.40;98.30;;;;;;5033861;28;20865;-71
2022/09/01 09:30:43;;;;;;;1999.90;999.90;;;23.50;97.40;;;;;;5034478;28;20176;-71
2022/09/01 09:33:29;;;;;;;1999.90;999.90;;;23.50;95.70;;;;;;5034011;28;20178;-71
2022/09/01 09:36:17;;;;;;;1999.90;999.90;;;23.60;95.70;;;;;;5033338;28;20669;-71
2022/09/01 09:38:43;;;;;;;1999.90;999.90;;;23.80;93.30;;;;;;5033758;28;20405;-71
2022/09/01 09:41:17;;;;;;;1999.90;999.90;;;23.90;91.40;;;;;;5033461;28;20403;-71
2022/09/01 09:43:48;;;;;;;1999.90;999.90;;;24.00;91.60;;;;;;5033790;28;20791;-71
2022/09/01 09:46:25;;;;;;;1999.90;999.90;;;24.10;85.40;;;;;;5033893;28;20472;-71
2022/09/01 09:49:08;;;;;;;1999.90;999.90;;;24.20;82.30;;;;;;5033531;28;20466;-71
2022/09/01 09:51:35;;;;;;;1999.90;999.90;;;24.30;80.60;;;;;;5033490;28;20504;-71
2022/09/01 09:54:26;;;;;;;1999.90;999.90;;;24.30;76.60;;;;;;5033577;28;20966;-71
2022/09/01 09:57:07;;;;;;;1999.90;999.90;;;24.40;74.20;;;;;;5035582;28;20411;-69
2022/09/01 09:59:40;;;;;;;1999.90;999.90;;;24.40;74.50;;;;;;5040394;28;20454;-69
2022/09/01 10:02:38;;;;;;;1999.90;999.90;;;24.50;73.00;;;;;;5033437;28;20381;-69
2022/09/01 10:05:39;;;;;;;1999.90;999.90;;;24.60;70.40;;;;;;5036473;28;20414;-69
2022/09/01 10:08:09;;;;;;;1999.90;999.90;;;24.80;64.80;;;;;;5034667;28;20397;-69
2022/09/01 10:10:47;;;;;;;1999.90;999.90;;;24.90;64.20;;;;;;5036262;28;20498;-70
2022/09/01 10:13:18;;;;;;;1999.90;999.90;;;25.00;62.10;;;;;;5034154;28;20403;-69
2022/09/01 10:15:49;;;;;;;1999.90;999.90;;;25.10;63.40;;;;;;5037428;28;20406;-69
2022/09/01 10:18:21;;;;;;;1999.90;999.90;;;25.40;61.20;;;;;;5033848;28;20955;-70
2022/09/01 10:21:15;;;;;;;1999.90;999.90;;;25.50;58.70;;;;;;5041454;28;20377;-70
2022/09/01 10:23:42;;;;;;;1999.90;999.90;;;25.60;55.10;;;;;;5014463;28;20909;-70
2022/09/01 10:26:15;;;;;;;1999.90;999.90;;;25.80;51.70;;;;;;5036450;28;20381;-68
2022/09/01 10:28:51;;;;;;;1999.90;999.90;;;25.90;50.40;;;;;;5032936;28;20439;-68
2022/09/01 10:31:19;;;;;;;1999.90;999.90;;;26.00;50.20;;;;;;5032367;28;20414;-69
2022/09/01 10:33:45;;;;;;;1999.90;999.90;;;26.10;48.20;;;;;;5038278;28;20406;-68
2022/09/01 10:36:12;;;;;;;1999.90;999.90;;;26.30;47.80;;;;;;5036121;28;20416;-68
2022/09/01 10:38:38;;;;;;;1999.90;999.90;;;26.40;45.80;;;;;;5035602;28;20398;-70
2022/09/01 10:41:07;;;;;;;1999.90;999.90;;;26.50;42.00;;;;;;5033813;28;20403;-69
2022/09/01 10:43:48;;;;;;;1999.90;999.90;;;26.50;40.90;;;;;;5034732;28;20176;-70
2022/09/01 10:46:20;;;;;;;1999.90;999.90;;;26.60;39.10;;;;;;5035819;28;20414;-70
2022/09/01 10:48:50;;;;;;;1999.90;999.90;;;26.70;35.70;;;;;;5035829;28;20449;-70
2022/09/01 10:51:16;;;;;;;1999.90;999.90;;;26.70;36.50;;;;;;5036066;28;20407;-70
2022/09/01 10:53:46;;;;;;;1999.90;999.90;;;26.80;37.90;;;;;;5035965;28;20381;-70
2022/09/01 10:56:18;;;;;;;1999.90;999.90;;;26.90;37.00;;;;;;5036015;28;20175;-70
2022/09/01 10:59:02;;;;;;;1999.90;999.90;;;27.10;36.30;;;;;;5035934;28;20457;-71
2022/09/01 11:01:40;;;;;;;1999.90;999.90;;;27.20;36.90;;;;;;5036330;28;20468;-70
2022/09/01 11:04:17;;;;;;;1999.90;999.90;;;27.40;37.30;;;;;;5036639;28;20428;-70
2022/09/01 11:07:05;;;;;;;1999.90;999.90;;;27.50;36.00;;;;;;5035027;28;20466;-70
2022/09/01 11:09:40;;;;;;;1999.90;999.90;;;27.70;34.40;;;;;;5035092;28;20467;-70
2022/09/01 11:12:27;;;;;;;1999.90;999.90;;;27.80;34.10;;;;;;5035581;28;20377;-70
2022/09/01 11:14:56;;;;;;;1999.90;999.90;;;27.80;33.40;;;;;;5034406;28;20776;-70
2022/09/01 11:17:31;;;;;;;1999.90;999.90;;;27.80;31.60;;;;;;5035188;28;20423;-70
2022/09/01 11:20:05;;;;;;;1999.90;999.90;;;27.50;31.30;;;;;;5033994;28;20962;-70
2022/09/01 11:22:34;;;;;;;1999.90;999.90;;;27.40;31.50;;;;;;5033061;28;20563;-70
2022/09/01 11:25:36;;;;;;;1999.90;999.90;;;27.60;32.40;;;;;;5034990;28;20913;-70
2022/09/01 11:28:09;;;;;;;1999.90;999.90;;;27.90;33.10;;;;;;5035119;28;20454;-70
2022/09/01 11:30:54;;;;;;;1999.90;999.90;;;28.10;30.50;;;;;;5034666;28;20444;-70
2022/09/01 11:33:25;;;;;;;1999.90;999.90;;;28.00;30.40;;;;;;5038191;28;20390;-71
2022/09/01 11:36:24;;;;;;;1999.90;999.90;;;28.00;31.80;;;;;;5038600;28;20393;-70
2022/09/01 11:39:02;;;;;;;1999.90;999.90;;;28.40;31.90;;;;;;5032505;28;20489;-70
2022/09/01 11:41:33;;;;;;;1999.90;999.90;;;29.00;29.80;;;;;;5036938;28;20881;-71
2022/09/01 11:44:00;;;;;;;1999.90;999.90;;;29.40;29.20;;;;;;5019269;28;20396;-71
2022/09/01 11:46:33;;;;;;;1999.90;999.90;;;29.90;29.10;;;;;;5036387;28;20465;-71
2022/09/01 11:49:05;;;;;;;1999.90;999.90;;;30.40;27.20;;;;;;5036199;28;20466;-71
2022/09/01 11:51:43;;;;;;;1999.90;999.90;;;31.00;26.50;;;;;;5036249;28;20404;-70
2022/09/01 11:54:09;;;;;;;1999.90;999.90;;;31.50;23.90;;;;;;5036397;28;20783;-70
2022/09/01 11:56:35;;;;;;;1999.90;999.90;;;31.40;23.00;;;;;;5037116;28;20415;-70
2022/09/01 11:59:01;;;;;;;1999.90;999.90;;;31.10;22.30;;;;;;5035030;28;20788;-70
2022/09/01 12:01:33;;;;;;;1999.90;999.90;;;30.60;22.00;;;;;;5035686;28;20172;-70
2022/09/01 12:04:43;;;;;;;1999.90;999.90;;;30.20;22.50;;;;;;5035910;28;20186;-71
2022/09/01 12:07:25;;;;;;;1999.90;999.90;;;29.90;23.30;;;;;;5030592;28;20962;-71
2022/09/01 12:09:51;;;;;;;1999.90;999.90;;;29.40;24.10;;;;;;5036448;28;20473;-70
2022/09/01 12:12:38;;;;;;;1999.90;999.90;;;29.10;24.50;;;;;;5036634;28;20403;-70
2022/09/01 12:15:19;;;;;;;1999.90;999.90;;;28.80;24.70;;;;;;5035896;28;20219;-70
2022/09/01 12:17:45;;;;;;;1999.90;999.90;;;28.50;26.00;;;;;;5035843;28;20523;-70
2022/09/01 12:20:34;;;;;;;1999.90;999.90;;;28.40;26.00;;;;;;5036174;28;20414;-70
2022/09/01 12:23:01;;;;;;;1999.90;999.90;;;28.40;25.50;;;;;;5035660;28;20410;-70